Time;durP1;ratioP1;P1;durP2;ratioP2;P2;SDS_P1;SDS_P2;PMS_P1;PMS_P2;Temp;Humidity;BMP_temperature;BMP_pressure;BME280_temperature;BME280_humidity;BME280_pressure;Samples;Min_cycle;Max_cycle;Signal;HPM_P1;HPM_P2
2022/09/06 00:03:07;;;;;;;10.23;2.25;;;;;;;18.01;50.05;99973.75;10346816;28;20058;-64
2022/09/06 00:08:08;;;;;;;5.97;2.33;;;;;;;18.02;50.45;99973.63;10346389;28;20141;-63
2022/09/06 00:13:10;;;;;;;4.63;2.38;;;;;;;18.00;50.36;99977.38;10346560;28;20064;-64
2022/09/06 00:18:12;;;;;;;4.25;2.38;;;;;;;18.05;50.60;99975.16;10348265;28;20136;-63
2022/09/06 00:23:14;;;;;;;3.78;2.30;;;;;;;18.05;50.48;99965.41;10344618;28;20060;-64
2022/09/06 00:28:15;;;;;;;7.20;2.50;;;;;;;18.01;50.39;99957.88;10338186;28;20050;-64
2022/09/06 00:33:17;;;;;;;5.90;2.50;;;;;;;17.70;50.58;99936.81;10342666;28;20205;-64
2022/09/06 00:38:19;;;;;;;7.93;2.35;;;;;;;17.63;51.22;99945.41;10344659;28;20057;-64
2022/09/06 00:43:20;;;;;;;3.80;2.20;;;;;;;17.77;50.96;99942.41;10345047;28;20057;-64
2022/09/06 00:48:23;;;;;;;5.20;2.20;;;;;;;17.80;51.32;99955.34;10347674;28;20089;-64
2022/09/06 00:53:26;;;;;;;3.88;2.25;;;;;;;17.83;51.29;99953.25;10344150;28;20080;-64
2022/09/06 00:58:28;;;;;;;5.25;2.55;;;;;;;17.77;51.43;99967.03;10345525;28;20075;-64
2022/09/06 01:03:30;;;;;;;5.55;2.20;;;;;;;17.82;51.42;99970.13;10345749;28;20062;-63
2022/09/06 01:08:47;;;;;;;3.72;2.30;;;;;;;17.91;51.12;99986.16;10345810;28;20135;-64
2022/09/06 01:13:59;;;;;;;7.75;2.28;;;;;;;17.53;52.60;100060.91;10346121;28;20048;-64
2022/09/06 01:19:14;;;;;;;5.03;2.30;;;;;;;17.60;51.29;100006.53;10343765;28;20054;-64
2022/09/06 01:24:29;;;;;;;6.55;2.30;;;;;;;17.62;51.65;100025.75;10343673;28;20060;-64
2022/09/06 01:30:04;;;;;;;4.97;2.22;;;;;;;17.87;51.05;100027.06;10342104;28;20042;-63
2022/09/06 01:35:21;;;;;;;8.00;2.60;;;;;;;17.93;50.70;100034.47;10342987;28;20064;-63
2022/09/06 01:40:24;;;;;;;6.25;2.10;;;;;;;18.06;50.36;100033.25;10344172;28;20069;-63
2022/09/06 01:45:55;;;;;;;7.22;2.40;;;;;;;18.11;49.52;100040.78;10342793;28;20045;-63
2022/09/06 01:51:14;;;;;;;4.65;2.28;;;;;;;18.21;48.85;100046.94;10345563;28;20076;-63
2022/09/06 01:56:44;;;;;;;4.20;2.20;;;;;;;18.28;48.38;100043.63;10342356;28;20128;-63
2022/09/06 02:02:02;;;;;;;7.20;2.10;;;;;;;18.35;48.34;100051.84;10344124;28;20053;-62
2022/09/06 02:07:19;;;;;;;6.00;2.10;;;;;;;18.48;48.26;100044.47;10348318;28;20045;-62
2022/09/06 02:12:23;;;;;;;4.30;2.17;;;;;;;18.68;47.86;100030.25;10351515;28;20136;-63
2022/09/06 02:17:34;;;;;;;4.38;2.20;;;;;;;18.88;47.80;100037.19;10349174;28;20108;-63
2022/09/06 02:22:40;;;;;;;3.95;2.00;;;;;;;19.05;48.02;100040.97;10348627;28;20436;-64
2022/09/06 02:27:42;;;;;;;3.90;1.95;;;;;;;19.17;47.74;100038.03;10348237;28;20493;-63
2022/09/06 02:32:52;;;;;;;7.20;1.88;;;;;;;19.32;48.00;100025.94;10350108;28;20129;-63
2022/09/06 02:37:55;;;;;;;3.50;1.80;;;;;;;19.45;48.01;100010.56;10348550;28;20140;-62
2022/09/06 02:42:56;;;;;;;5.57;1.83;;;;;;;19.66;47.68;100006.84;10345577;28;20083;-64
2022/09/06 02:47:58;;;;;;;3.92;2.00;;;;;;;19.58;47.94;99996.13;10350051;28;20060;-63
2022/09/06 02:53:08;;;;;;;4.32;1.90;;;;;;;19.26;48.34;99989.41;10349419;28;20152;-62
2022/09/06 02:58:10;;;;;;;5.30;2.15;;;;;;;18.85;50.16;99970.41;10350498;28;20050;-63
2022/09/06 03:03:12;;;;;;;7.03;2.20;;;;;;;18.52;51.65;99938.09;10345445;28;20056;-63
2022/09/06 03:08:15;;;;;;;4.05;2.10;;;;;;;18.76;52.26;99945.59;10344176;28;20056;-63
2022/09/06 03:13:17;;;;;;;5.57;2.50;;;;;;;18.80;52.38;99944.34;10341034;28;20133;-63
2022/09/06 03:18:19;;;;;;;8.25;2.50;;;;;;;18.60;52.61;99916.22;10341694;28;20104;-63
2022/09/06 03:23:23;;;;;;;6.35;2.28;;;;;;;18.68;52.60;99897.78;10338938;28;20143;-63
2022/09/06 03:28:24;;;;;;;4.40;2.65;;;;;;;18.50;51.83;99894.22;10341187;28;20457;-63
2022/09/06 03:33:26;;;;;;;4.18;2.22;;;;;;;18.29;53.00;99899.69;10341876;28;20762;-63
2022/09/06 03:38:29;;;;;;;6.32;2.50;;;;;;;18.21;52.70;99893.41;10339090;28;20052;-63
2022/09/06 03:43:31;;;;;;;4.50;2.33;;;;;;;18.24;52.73;99911.69;10340747;28;20058;-63
2022/09/06 03:48:32;;;;;;;5.88;2.38;;;;;;;18.13;54.04;99917.91;10348066;28;20408;-63
2022/09/06 03:53:34;;;;;;;4.95;2.50;;;;;;;17.99;54.45;99905.09;10347550;28;20045;-63
2022/09/06 03:58:36;;;;;;;7.55;2.58;;;;;;;17.90;55.17;99899.78;10349084;28;20450;-62
2022/09/06 04:03:38;;;;;;;4.65;2.58;;;;;;;17.84;55.12;99907.31;10347729;28;20053;-62
2022/09/06 04:08:40;;;;;;;3.80;2.40;;;;;;;17.76;55.31;99898.41;10348010;28;20054;-63
2022/09/06 04:13:41;;;;;;;5.10;2.60;;;;;;;17.68;54.71;99900.91;10344546;28;20046;-62
2022/09/06 04:18:43;;;;;;;5.30;2.42;;;;;;;17.60;55.00;99893.66;10347307;28;20045;-63
2022/09/06 04:23:45;;;;;;;5.78;2.90;;;;;;;17.43;55.36;99893.47;10345808;28;20220;-62
2022/09/06 04:28:46;;;;;;;12.68;2.80;;;;;;;17.42;55.42;99905.88;10344584;28;20052;-63
2022/09/06 04:33:48;;;;;;;8.38;2.47;;;;;;;17.39;55.71;99908.78;10339913;28;20133;-63
2022/09/06 04:38:50;;;;;;;4.82;2.72;;;;;;;17.30;56.21;99900.78;10345608;28;20137;-63
2022/09/06 04:43:51;;;;;;;5.97;2.70;;;;;;;17.25;55.61;99902.97;10346746;28;20079;-63
2022/09/06 04:48:54;;;;;;;5.13;2.80;;;;;;;17.19;56.05;99906.16;10347694;28;20132;-63
2022/09/06 04:53:56;;;;;;;7.65;2.85;;;;;;;17.04;56.32;99918.91;10346235;28;20121;-63
2022/09/06 04:58:58;;;;;;;6.90;2.83;;;;;;;16.88;56.39;99916.75;10344811;28;20505;-63
2022/09/06 05:03:59;;;;;;;4.55;2.60;;;;;;;16.89;56.52;99928.16;10342685;28;20135;-63
2022/09/06 05:09:01;;;;;;;4.28;2.30;;;;;;;16.84;56.65;99925.91;10345102;28;20498;-63
2022/09/06 05:14:03;;;;;;;6.85;2.42;;;;;;;16.80;57.01;99929.78;10346274;28;20451;-63
2022/09/06 05:19:05;;;;;;;5.18;2.60;;;;;;;16.85;57.37;99934.69;10344310;28;20437;-62
2022/09/06 05:24:06;;;;;;;5.50;2.58;;;;;;;16.93;57.14;99948.06;10341111;28;20511;-62
2022/09/06 05:29:08;;;;;;;5.97;2.47;;;;;;;16.99;56.65;99936.97;10344941;28;20050;-62
2022/09/06 05:34:12;;;;;;;8.75;2.50;;;;;;;17.02;57.12;99949.91;10343382;28;20213;-63
2022/09/06 05:39:13;;;;;;;5.55;2.42;;;;;;;17.12;56.86;99961.34;10341290;28;20107;-64
2022/09/06 05:44:15;;;;;;;4.32;2.58;;;;;;;17.10;57.13;99955.38;10344244;28;20525;-63
2022/09/06 05:49:17;;;;;;;7.82;2.70;;;;;;;17.17;57.39;99963.59;10343525;28;20424;-62
2022/09/06 05:54:18;;;;;;;5.00;2.20;;;;;;;17.24;57.46;99965.56;10342260;28;20041;-63
2022/09/06 05:59:20;;;;;;;3.92;2.35;;;;;;;17.38;57.08;99972.38;10341727;28;20053;-63
2022/09/06 06:04:22;;;;;;;4.47;2.20;;;;;;;17.45;56.92;99971.69;10340079;28;20136;-62
2022/09/06 06:09:24;;;;;;;4.95;2.30;;;;;;;17.57;56.79;99967.13;10342790;28;20153;-63
2022/09/06 06:14:25;;;;;;;6.47;2.40;;;;;;;17.72;56.57;99977.19;10343271;28;20046;-63
2022/09/06 06:19:27;;;;;;;5.43;2.30;;;;;;;17.82;56.92;99972.75;10341254;28;20604;-63
2022/09/06 06:24:29;;;;;;;5.47;2.22;;;;;;;17.92;56.54;99978.06;10321547;28;20057;-63
2022/09/06 06:29:30;;;;;;;8.55;2.78;;;;;;;18.12;55.86;99984.19;10324537;28;20144;-63
2022/09/06 06:34:32;;;;;;;3.85;2.25;;;;;;;18.30;55.54;99987.91;10345102;28;20054;-63
2022/09/06 06:39:34;;;;;;;8.50;2.25;;;;;;;18.46;55.25;99986.34;10343675;28;20501;-63
2022/09/06 06:44:36;;;;;;;3.80;2.30;;;;;;;18.59;55.47;99986.91;10340167;28;20052;-63
2022/09/06 06:49:37;;;;;;;5.43;2.40;;;;;;;18.73;55.25;99990.91;10330750;28;20052;-63
2022/09/06 06:54:40;;;;;;;5.50;2.50;;;;;;;18.86;54.92;99987.97;10332005;28;21065;-70
2022/09/06 06:59:42;;;;;;;5.13;2.08;;;;;;;18.99;54.15;99981.38;10331813;28;20125;-70
2022/09/06 07:04:43;;;;;;;6.45;2.20;;;;;;;19.12;53.94;99976.63;10336494;28;20501;-70
2022/09/06 07:09:45;;;;;;;4.28;2.00;;;;;;;19.25;53.96;99981.59;10338457;28;20713;-71
2022/09/06 07:15:07;;;;;;;6.03;1.95;;;;;;;19.31;53.09;99971.25;10341992;28;20050;-70
2022/09/06 07:20:10;;;;;;;7.40;2.38;;;;;;;19.42;52.31;99976.34;10341428;28;20160;-69
2022/09/06 07:25:19;;;;;;;4.63;2.00;;;;;;;19.53;52.03;99979.78;10348096;28;20153;-70
2022/09/06 07:30:22;;;;;;;8.68;2.20;;;;;;;19.86;51.91;99973.91;10347794;28;20046;-69
2022/09/06 07:35:25;;;;;;;4.40;2.00;;;;;;;20.14;50.88;99980.84;10331639;28;20627;-70
2022/09/06 07:40:28;;;;;;;4.22;2.10;;;;;;;20.92;49.79;99977.38;10348403;28;20058;-71
2022/09/06 07:45:30;;;;;;;6.72;2.30;;;;;;;21.79;47.91;99970.00;10345804;28;20053;-70
2022/09/06 07:50:32;;;;;;;7.05;1.90;;;;;;;22.47;46.43;99970.63;10348991;28;20145;-69
2022/09/06 07:55:50;;;;;;;5.32;2.00;;;;;;;23.16;44.73;99952.25;10349868;28;20559;-69
2022/09/06 08:00:52;;;;;;;6.13;2.10;;;;;;;23.69;43.55;99962.22;10349665;28;20049;-70
2022/09/06 08:05:54;;;;;;;7.13;2.00;;;;;;;23.93;42.47;99961.25;10350090;28;20500;-69
2022/09/06 08:11:11;;;;;;;5.10;1.98;;;;;;;24.34;41.76;99960.00;10349861;28;20050;-70
2022/09/06 08:16:15;;;;;;;6.63;2.17;;;;;;;24.39;41.50;99956.78;10345971;28;20053;-69
2022/09/06 08:21:17;;;;;;;8.82;1.95;;;;;;;24.67;40.99;99957.88;10343207;28;20046;-70
2022/09/06 08:26:20;;;;;;;5.90;1.80;;;;;;;25.14;40.22;99955.75;10345487;28;20273;-70
2022/09/06 08:31:23;;;;;;;5.15;1.77;;;;;;;25.44;39.38;99948.56;10341370;28;20052;-70
2022/09/06 08:36:28;;;;;;;4.68;1.83;;;;;;;25.77;38.86;99953.28;10339243;28;20433;-71
2022/09/06 08:41:36;;;;;;;5.93;1.90;;;;;;;25.69;38.67;99950.72;10345943;28;20497;-70
2022/09/06 08:46:46;;;;;;;4.70;1.48;;;;;;;26.03;38.08;99944.75;10346017;28;20042;-70
2022/09/06 08:51:48;;;;;;;4.45;1.50;;;;;;;26.30;37.72;99935.13;10348064;28;20072;-70
2022/09/06 08:57:06;;;;;;;8.13;1.92;;;;;;;26.60;36.70;99928.59;10347655;28;20468;-70
2022/09/06 09:02:15;;;;;;;3.60;1.50;;;;;;;27.15;36.23;99923.22;10347076;28;20050;-70
2022/09/06 09:07:41;;;;;;;4.53;1.50;;;;;;;27.18;34.96;99912.06;10346333;28;20052;-70
2022/09/06 09:12:47;;;;;;;6.57;1.85;;;;;;;27.05;35.90;99901.25;10345043;28;20363;-70
2022/09/06 09:17:50;;;;;;;7.85;1.70;;;;;;;27.41;34.95;99893.81;10346029;28;20042;-71
2022/09/06 09:22:52;;;;;;;2.70;1.30;;;;;;;27.90;34.44;99898.09;10344184;28;20050;-70
2022/09/06 09:27:56;;;;;;;3.78;1.60;;;;;;;28.05;33.80;99891.53;10345303;28;20493;-70
2022/09/06 09:32:58;;;;;;;3.33;1.40;;;;;;;28.13;33.49;99883.25;10345169;28;20053;-69
2022/09/06 09:38:06;;;;;;;2.72;1.20;;;;;;;28.18;32.71;99879.94;10343520;28;20793;-70
2022/09/06 09:43:18;;;;;;;4.63;1.27;;;;;;;28.42;32.13;99873.97;10343171;28;20049;-71
2022/09/06 09:48:26;;;;;;;2.97;1.10;;;;;;;28.38;31.13;99870.03;10341509;28;20054;-71
2022/09/06 09:53:28;;;;;;;4.22;1.30;;;;;;;28.52;31.41;99858.25;10344455;28;20052;-70
2022/09/06 09:58:34;;;;;;;2.65;1.13;;;;;;;28.32;31.17;99862.00;10343052;28;20333;-71
2022/09/06 10:03:36;;;;;;;1.55;1.00;;;;;;;28.32;30.96;99865.47;10343756;28;20057;-70
2022/09/06 10:08:58;;;;;;;2.55;1.15;;;;;;;28.54;30.48;99860.72;10346702;28;20088;-69
2022/09/06 10:14:11;;;;;;;1.60;0.93;;;;;;;28.42;29.74;99860.50;10343750;28;20046;-70
2022/09/06 10:19:37;;;;;;;1.60;1.00;;;;;;;28.47;30.11;99855.34;10344381;28;20050;-69
2022/09/06 10:25:04;;;;;;;2.97;1.08;;;;;;;28.84;29.58;99848.44;10342525;28;20651;-70
2022/09/06 10:30:08;;;;;;;3.55;1.40;;;;;;;28.61;29.87;99840.00;10343493;28;20045;-69
2022/09/06 10:35:15;;;;;;;6.53;1.30;;;;;;;28.53;29.81;99837.53;10343942;28;20604;-69
2022/09/06 10:40:28;;;;;;;3.53;1.35;;;;;;;28.70;29.66;99825.28;10343882;28;20299;-69
2022/09/06 10:45:45;;;;;;;2.00;1.10;;;;;;;28.71;29.91;99824.25;10344094;28;20514;-69
2022/09/06 10:50:55;;;;;;;4.40;1.30;;;;;;;28.67;30.25;99828.38;10343963;28;20141;-69
2022/09/06 10:56:11;;;;;;;2.13;1.10;;;;;;;28.76;29.69;99825.28;10344093;28;20140;-70
2022/09/06 11:01:22;;;;;;;3.00;1.10;;;;;;;28.67;29.38;99818.47;10351938;28;20420;-69
2022/09/06 11:06:30;;;;;;;4.93;1.40;;;;;;;28.43;29.86;99810.22;10351731;28;20042;-69
2022/09/06 11:11:43;;;;;;;6.10;1.30;;;;;;;28.37;29.77;99803.00;10351727;28;20213;-70
2022/09/06 11:16:52;;;;;;;5.20;1.35;;;;;;;28.41;30.24;99801.53;10352103;28;20049;-67
2022/09/06 11:22:37;;;;;;;4.78;1.20;;;;;;;28.47;30.00;99806.91;10351326;28;20108;-70
2022/09/06 11:27:43;;;;;;;3.78;1.20;;;;;;;28.59;30.14;99794.47;10349898;28;20533;-70
2022/09/06 11:32:49;;;;;;;3.38;1.23;;;;;;;28.74;29.73;99784.28;10350911;28;20136;-69
2022/09/06 11:38:16;;;;;;;3.97;1.20;;;;;;;28.89;29.77;99784.03;10349202;28;20133;-70
2022/09/06 11:43:45;;;;;;;3.50;1.20;;;;;;;28.93;29.36;99778.03;10349944;28;20056;-69
2022/09/06 11:49:19;;;;;;;4.32;1.17;;;;;;;28.95;29.33;99773.25;10347138;28;20056;-71
2022/09/06 11:54:47;;;;;;;3.17;1.30;;;;;;;29.02;29.24;99779.44;10346631;28;20399;-70
2022/09/06 11:59:59;;;;;;;2.40;1.20;;;;;;;28.92;28.99;99780.94;10345838;28;20352;-71
2022/09/06 12:05:03;;;;;;;4.05;1.40;;;;;;;28.93;29.63;99775.31;10347451;28;20417;-71
2022/09/06 12:10:30;;;;;;;4.55;1.45;;;;;;;29.13;28.63;99769.03;10346381;28;20064;-68
2022/09/06 12:15:55;;;;;;;4.15;1.35;;;;;;;29.28;28.78;99761.47;10348995;28;20054;-69
2022/09/06 12:20:57;;;;;;;2.95;1.15;;;;;;;29.46;28.79;99753.53;10341089;28;20049;-71
2022/09/06 12:26:04;;;;;;;4.78;1.17;;;;;;;29.39;28.33;99750.06;10345107;28;20056;-71
2022/09/06 12:31:36;;;;;;;2.90;1.25;;;;;;;29.62;27.95;99743.03;10339483;28;20579;-70
2022/09/06 12:36:59;;;;;;;4.07;1.42;;;;;;;29.74;27.03;99729.69;10347791;28;20041;-70
2022/09/06 12:42:03;;;;;;;3.13;1.23;;;;;;;29.93;27.11;99723.31;10339570;28;20148;-70
2022/09/06 12:47:27;;;;;;;5.00;1.40;;;;;;;30.33;26.86;99718.34;10345561;28;20116;-70
2022/09/06 12:52:30;;;;;;;2.85;1.30;;;;;;;30.27;27.12;99706.59;10333805;28;20142;-70
2022/09/06 12:57:33;;;;;;;5.28;1.20;;;;;;;30.46;26.91;99704.72;10336260;28;20053;-70
2022/09/06 13:02:42;;;;;;;3.28;1.50;;;;;;;30.31;27.29;99696.16;10343309;28;20270;-69
2022/09/06 13:07:56;;;;;;;4.80;1.45;;;;;;;30.49;26.78;99702.44;10344921;28;20050;-71
2022/09/06 13:13:00;;;;;;;2.20;1.27;;;;;;;30.76;26.32;99692.13;10345454;28;20054;-70
2022/09/06 13:18:22;;;;;;;2.80;1.33;;;;;;;30.56;26.58;99694.22;10345095;28;20053;-69
2022/09/06 13:23:25;;;;;;;4.20;1.75;;;;;;;30.73;26.76;99692.56;10346315;28;20127;-70
2022/09/06 13:28:30;;;;;;;4.35;1.35;;;;;;;31.30;26.02;99697.41;10344928;28;20674;-69
2022/09/06 13:33:33;;;;;;;2.85;1.48;;;;;;;31.66;25.85;99682.09;10346450;28;20147;-70
2022/09/06 13:38:36;;;;;;;4.63;1.52;;;;;;;31.72;25.75;99686.56;10344210;28;20064;-69
2022/09/06 13:43:46;;;;;;;4.07;1.40;;;;;;;31.55;25.90;99677.50;10342106;28;20057;-69
2022/09/06 13:48:48;;;;;;;4.85;1.40;;;;;;;31.64;25.85;99668.00;10344005;28;20096;-70
2022/09/06 13:53:50;;;;;;;4.05;1.48;;;;;;;31.49;26.09;99679.25;10343232;28;20104;-70
2022/09/06 13:59:01;;;;;;;3.35;1.60;;;;;;;31.41;26.11;99668.75;10317267;28;20060;-69
2022/09/06 14:04:04;;;;;;;5.20;1.60;;;;;;;31.48;26.06;99650.53;10338001;28;20418;-69
2022/09/06 14:09:06;;;;;;;4.82;1.42;;;;;;;31.55;25.78;99647.75;10342486;28;20506;-69
2022/09/06 14:14:09;;;;;;;3.47;1.60;;;;;;;31.26;25.14;99641.34;10338961;28;20313;-69
2022/09/06 14:19:11;;;;;;;4.57;1.52;;;;;;;30.91;26.26;99645.78;10338375;28;20424;-69
2022/09/06 14:24:13;;;;;;;6.63;1.70;;;;;;;30.63;26.79;99654.50;10338854;28;20140;-69
2022/09/06 14:29:15;;;;;;;3.15;1.55;;;;;;;30.36;27.38;99658.53;10338783;28;20053;-69
2022/09/06 14:34:17;;;;;;;3.70;1.50;;;;;;;30.18;27.82;99666.63;10341140;28;20141;-69
2022/09/06 14:39:19;;;;;;;6.45;1.58;;;;;;;29.73;27.96;99666.03;10341208;28;20142;-68
2022/09/06 14:44:20;;;;;;;5.22;1.80;;;;;;;29.31;29.02;99666.75;10338375;28;20053;-69
2022/09/06 14:49:24;;;;;;;5.03;1.42;;;;;;;29.05;28.45;99659.72;10340555;28;20042;-69
2022/09/06 14:54:25;;;;;;;7.13;1.65;;;;;;;29.35;28.06;99647.25;10342909;28;20096;-69
2022/09/06 14:59:29;;;;;;;6.75;1.70;;;;;;;29.70;27.73;99648.41;10341668;28;20075;-69
2022/09/06 15:04:32;;;;;;;7.43;1.80;;;;;;;30.17;26.94;99655.00;10341308;28;20060;-69
2022/09/06 15:09:34;;;;;;;4.60;1.60;;;;;;;30.23;27.32;99646.03;10342321;28;20408;-69
2022/09/06 15:14:37;;;;;;;4.80;1.77;;;;;;;29.96;27.84;99644.69;10341250;28;20041;-69
2022/09/06 15:19:40;;;;;;;3.95;1.60;;;;;;;29.34;28.42;99648.28;10341311;28;20201;-69
2022/09/06 15:24:42;;;;;;;3.88;1.65;;;;;;;28.82;29.01;99644.06;10341320;28;20042;-69
2022/09/06 15:29:44;;;;;;;3.72;1.60;;;;;;;28.71;29.96;99652.81;10343905;28;20074;-69
2022/09/06 15:34:46;;;;;;;4.28;1.40;;;;;;;28.55;29.50;99652.47;10340782;28;20133;-69
2022/09/06 15:39:48;;;;;;;6.57;1.70;;;;;;;27.45;31.25;99669.41;10340053;28;20169;-69
2022/09/06 15:44:50;;;;;;;10.05;1.52;;;;;;;26.86;31.78;99660.44;10348638;28;20061;-69
2022/09/06 15:49:51;;;;;;;10.77;1.50;;;;;;;26.59;31.77;99674.78;10348686;28;20053;-69
2022/09/06 16:00:31;;;;;;;3.13;1.30;;;;;;;26.22;31.92;99683.25;10275628;28;20045;-69
2022/09/06 16:05:35;;;;;;;4.75;1.77;;;;;;;26.30;31.33;99688.44;10347858;28;20710;-69
2022/09/06 16:10:59;;;;;;;4.85;1.40;;;;;;;26.16;30.24;99710.84;10340519;28;20458;-69
2022/09/06 16:16:03;;;;;;;36.53;7.10;;;;;;;25.16;42.35;99830.59;10336843;28;20050;-69
2022/09/06 16:21:07;;;;;;;11.55;2.60;;;;;;;22.01;47.34;99764.31;10344722;28;20045;-70
2022/09/06 16:26:10;;;;;;;10.07;2.60;;;;;;;21.15;50.40;99760.41;10346186;28;20137;-70
2022/09/06 16:31:12;;;;;;;7.85;2.50;;;;;;;21.21;53.73;99749.16;10347311;28;20061;-69
2022/09/06 16:36:15;;;;;;;12.07;2.83;;;;;;;21.46;54.13;99747.34;10348225;28;20073;-70
2022/09/06 16:41:21;;;;;;;8.32;2.95;;;;;;;21.63;54.50;99749.03;10346414;28;20064;-70
2022/09/06 16:46:25;;;;;;;8.52;2.90;;;;;;;22.27;55.07;99738.31;10346504;28;20104;-69
2022/09/06 16:51:28;;;;;;;5.60;1.75;;;;;;;22.08;53.29;99713.91;10342867;28;20108;-69
2022/09/06 16:56:33;;;;;;;5.50;1.60;;;;;;;21.62;51.29;99696.81;10344377;28;20312;-68
2022/09/06 17:01:37;;;;;;;4.47;1.90;;;;;;;21.47;52.09;99679.84;10345419;28;20133;-70
2022/09/06 17:06:46;;;;;;;4.57;1.50;;;;;;;21.52;53.59;99666.84;10346014;28;20128;-70
2022/09/06 17:11:49;;;;;;;3.10;1.73;;;;;;;21.56;55.66;99677.00;10344290;28;20048;-70
2022/09/06 17:17:06;;;;;;;7.82;2.00;;;;;;;21.55;56.31;99677.19;10336256;28;20046;-70
2022/09/06 17:22:09;;;;;;;4.75;1.85;;;;;;;;;;10343609;28;20046;-70
2022/09/06 17:27:10;;;;;;;3.88;1.88;;;;;;;21.51;55.66;99684.69;10346176;28;20155;-70
2022/09/06 17:32:12;;;;;;;3.83;1.75;;;;;;;21.51;55.36;99687.34;10345468;28;20164;-70
2022/09/06 17:37:14;;;;;;;5.63;1.85;;;;;;;21.47;57.06;99712.63;10345769;28;20060;-70
2022/09/06 17:42:15;;;;;;;5.95;1.70;;;;;;;21.25;54.67;99715.91;10346172;28;20058;-70
2022/09/06 17:47:17;;;;;;;7.50;1.60;;;;;;;20.86;54.68;99713.00;10344474;28;20050;-70
2022/09/06 17:52:19;;;;;;;5.30;2.10;;;;;;;20.69;55.28;99721.91;10344479;28;20042;-70
2022/09/06 17:57:20;;;;;;;3.22;1.80;;;;;;;20.44;56.39;99712.13;10344758;28;20794;-70
2022/09/06 18:02:22;;;;;;;3.13;1.83;;;;;;;20.34;55.46;99700.81;10345334;28;20058;-70
2022/09/06 18:07:24;;;;;;;4.65;2.10;;;;;;;20.55;54.92;99711.03;10338642;28;20064;-69
2022/09/06 18:12:29;;;;;;;4.78;1.70;;;;;;;20.36;53.71;99714.75;10340475;28;20492;-70
2022/09/06 18:17:31;;;;;;;4.80;1.63;;;;;;;20.20;53.70;99712.03;10338604;28;20049;-69
2022/09/06 18:22:33;;;;;;;4.22;1.85;;;;;;;20.17;51.99;99709.72;10338143;28;20943;-62
2022/09/06 18:27:34;;;;;;;4.63;1.67;;;;;;;20.21;52.33;99703.09;10341433;28;20523;-62
2022/09/06 18:32:36;;;;;;;2.58;1.60;;;;;;;19.84;52.61;99705.19;10345124;28;20315;-62
2022/09/06 18:37:38;;;;;;;4.60;1.60;;;;;;;19.71;53.49;99700.25;10342012;28;20196;-62
2022/09/06 18:42:43;;;;;;;3.95;1.80;;;;;;;19.51;54.02;99701.44;10344190;28;20134;-63
2022/09/06 18:47:45;;;;;;;4.47;2.40;;;;;;;19.51;54.89;99712.03;10343445;28;20136;-62
2022/09/06 18:52:47;;;;;;;5.43;1.90;;;;;;;19.27;55.15;99712.69;10343418;28;20050;-63
2022/09/06 18:57:49;;;;;;;3.97;2.00;;;;;;;19.35;56.90;99717.22;10342865;28;20076;-64
2022/09/06 19:02:51;;;;;;;6.05;2.00;;;;;;;19.45;56.35;99718.78;10341359;28;20053;-64
2022/09/06 19:07:52;;;;;;;4.10;1.90;;;;;;;19.40;56.71;99713.09;10342018;28;20132;-64
2022/09/06 19:12:55;;;;;;;4.18;1.90;;;;;;;19.33;57.91;99698.81;10343988;28;20409;-63
2022/09/06 19:17:57;;;;;;;3.45;1.73;;;;;;;19.32;56.47;99697.13;10347149;28;20081;-64
2022/09/06 19:22:59;;;;;;;4.80;2.17;;;;;;;19.44;57.32;99689.75;10333492;28;20581;-63
2022/09/06 19:28:01;;;;;;;7.72;2.28;;;;;;;19.56;56.58;99677.09;10350382;28;20160;-63
2022/09/06 19:33:02;;;;;;;4.47;2.00;;;;;;;19.46;56.84;99667.41;10350576;28;20240;-63
2022/09/06 19:38:04;;;;;;;4.25;1.90;;;;;;;19.51;56.92;99661.63;10350032;28;20069;-63
2022/09/06 19:43:06;;;;;;;4.65;2.28;;;;;;;19.67;56.91;99666.22;10348120;28;20052;-62
2022/09/06 19:48:08;;;;;;;4.07;2.10;;;;;;;19.65;57.58;99666.38;10349274;28;20052;-61
2022/09/06 19:53:09;;;;;;;3.45;2.10;;;;;;;19.71;57.68;99655.13;10348265;28;20042;-63
2022/09/06 19:58:12;;;;;;;6.18;2.20;;;;;;;19.66;57.32;99653.94;10350047;28;20056;-62
2022/09/06 20:03:14;;;;;;;4.03;2.03;;;;;;;19.39;57.66;99654.91;10349009;28;20148;-62
2022/09/06 20:08:15;;;;;;;4.88;2.10;;;;;;;19.36;57.78;99669.31;10347405;28;20050;-63
2022/09/06 20:13:17;;;;;;;4.45;2.30;;;;;;;19.45;57.91;99660.44;10347388;28;20049;-61
2022/09/06 20:18:19;;;;;;;5.78;2.40;;;;;;;19.51;57.70;99658.16;10349052;28;20056;-62
2022/09/06 20:23:21;;;;;;;4.60;2.10;;;;;;;19.22;57.99;99648.66;10341548;28;20504;-63
2022/09/06 20:28:23;;;;;;;5.03;2.25;;;;;;;19.31;58.24;99646.91;10345232;28;20060;-63
2022/09/06 20:33:25;;;;;;;5.82;2.50;;;;;;;19.24;59.04;99644.03;10348105;28;20168;-62
2022/09/06 20:38:35;;;;;;;6.63;2.22;;;;;;;19.32;58.93;99648.56;10345941;28;20054;-63
2022/09/06 20:43:38;;;;;;;5.60;2.80;;;;;;;19.38;59.10;99654.06;10346454;28;20136;-64
2022/09/06 20:48:41;;;;;;;4.18;2.30;;;;;;;19.44;58.67;99637.53;10345446;28;20442;-63
2022/09/06 20:53:49;;;;;;;5.80;2.72;;;;;;;19.40;58.34;99644.16;10345213;28;20057;-63
2022/09/06 20:58:54;;;;;;;3.97;2.65;;;;;;;19.27;58.39;99646.38;10343434;28;20490;-62
2022/09/06 21:03:58;;;;;;;6.47;2.53;;;;;;;19.09;58.54;99645.56;10339979;28;20088;-64
2022/09/06 21:09:01;;;;;;;4.88;2.30;;;;;;;19.21;58.63;99636.41;10345139;28;20058;-62
2022/09/06 21:14:03;;;;;;;4.72;2.30;;;;;;;19.06;58.80;99643.22;10342463;28;20046;-64
2022/09/06 21:19:07;;;;;;;4.72;2.22;;;;;;;19.08;59.02;99630.63;10346257;28;20057;-63
2022/09/06 21:24:10;;;;;;;10.65;2.30;;;;;;;19.14;58.63;99630.03;10339955;28;20080;-63
2022/09/06 21:29:12;;;;;;;5.28;2.42;;;;;;;19.05;58.53;99636.25;10345811;28;20099;-62
2022/09/06 21:34:14;;;;;;;5.40;2.10;;;;;;;19.08;58.46;99640.41;10345282;28;20477;-62
2022/09/06 21:39:17;;;;;;;3.17;1.77;;;;;;;18.80;58.39;99641.44;10343444;28;20449;-63
2022/09/06 21:44:19;;;;;;;4.50;1.98;;;;;;;18.74;58.21;99656.13;10342940;28;20049;-63
2022/09/06 21:49:21;;;;;;;5.70;2.10;;;;;;;18.67;59.02;99655.03;10344840;28;20440;-63
2022/09/06 21:54:22;;;;;;;7.72;2.35;;;;;;;18.62;59.40;99658.16;10343569;28;20058;-61
2022/09/06 21:59:24;;;;;;;4.57;2.40;;;;;;;18.56;60.37;99656.06;10345037;28;20553;-60
2022/09/06 22:04:26;;;;;;;4.28;2.50;;;;;;;18.62;59.98;99649.38;10342474;28;20136;-61
2022/09/06 22:09:27;;;;;;;6.78;2.38;;;;;;;18.60;60.28;99646.03;10344708;28;20077;-61
2022/09/06 22:14:29;;;;;;;7.28;2.90;;;;;;;18.44;60.61;99656.47;10341857;28;20041;-61
2022/09/06 22:19:31;;;;;;;7.03;2.70;;;;;;;18.37;60.75;99620.94;10343595;28;20137;-61
2022/09/06 22:24:33;;;;;;;8.18;2.65;;;;;;;18.31;60.90;99608.31;10342996;28;20141;-61
2022/09/06 22:29:34;;;;;;;6.68;2.50;;;;;;;18.17;61.17;99614.91;10344139;28;20124;-61
2022/09/06 22:34:36;;;;;;;6.43;2.83;;;;;;;18.11;61.34;99619.94;10342881;28;20205;-61
2022/09/06 22:39:38;;;;;;;8.57;3.03;;;;;;;18.14;61.34;99617.84;10342930;28;20057;-61
2022/09/06 22:44:39;;;;;;;4.75;2.50;;;;;;;18.25;60.86;99604.44;10342172;28;20045;-61
2022/09/06 22:49:41;;;;;;;5.75;2.40;;;;;;;18.31;60.75;99603.00;10343021;28;20092;-62
2022/09/06 22:54:43;;;;;;;6.00;2.63;;;;;;;18.40;60.53;99599.47;10343278;28;20057;-62
2022/09/06 22:59:44;;;;;;;6.22;2.83;;;;;;;18.24;60.63;99596.66;10343062;28;20078;-62
2022/09/06 23:04:46;;;;;;;9.43;2.60;;;;;;;18.13;60.90;99610.88;10339617;28;20060;-63
2022/09/06 23:09:48;;;;;;;8.05;2.50;;;;;;;18.14;60.73;99619.63;10337432;28;20073;-63
2022/09/06 23:14:50;;;;;;;5.55;2.75;;;;;;;18.21;60.92;99629.53;10342278;28;20124;-63
2022/09/06 23:19:51;;;;;;;6.55;2.97;;;;;;;18.18;61.44;99635.09;10333290;28;20048;-63
2022/09/06 23:24:53;;;;;;;5.50;2.95;;;;;;;17.90;61.71;99635.22;10338768;28;20068;-63
2022/09/06 23:29:55;;;;;;;5.65;2.65;;;;;;;17.97;61.69;99634.50;10339898;28;20046;-62
2022/09/06 23:34:56;;;;;;;4.05;2.38;;;;;;;18.12;61.12;99642.78;10339989;28;20509;-63
2022/09/06 23:39:58;;;;;;;7.05;2.85;;;;;;;18.14;61.60;99649.59;10339227;28;20050;-63
2022/09/06 23:45:00;;;;;;;3.72;2.10;;;;;;;18.07;61.08;99652.97;10341640;28;20058;-62